sensor_id;sensor_type;location;lat;lon;timestamp;temperature;humidity
16178;DHT22;8195;51.220;9.746;2023-05-19T00:24:04;9.20;97.20
16178;DHT22;8195;51.220;9.746;2023-05-19T00:34:35;9.10;97.20
16178;DHT22;8195;51.220;9.746;2023-05-19T00:45:02;9.00;97.20
16178;DHT22;8195;51.220;9.746;2023-05-19T01:06:35;8.90;97.20
16178;DHT22;8195;51.220;9.746;2023-05-19T01:38:02;8.80;97.20
16178;DHT22;8195;51.220;9.746;2023-05-19T01:48:35;8.70;97.20
16178;DHT22;8195;51.220;9.746;2023-05-19T01:59:03;8.70;97.20
16178;DHT22;8195;51.220;9.746;2023-05-19T02:09:58;8.40;97.20
16178;DHT22;8195;51.220;9.746;2023-05-19T02:20:31;8.30;97.20
16178;DHT22;8195;51.220;9.746;2023-05-19T02:30:53;8.10;97.20
16178;DHT22;8195;51.220;9.746;2023-05-19T02:41:17;7.90;97.20
16178;DHT22;8195;51.220;9.746;2023-05-19T02:51:47;7.90;97.20
16178;DHT22;8195;51.220;9.746;2023-05-19T03:02:18;8.00;97.20
16178;DHT22;8195;51.220;9.746;2023-05-19T03:12:39;8.00;97.20
16178;DHT22;8195;51.220;9.746;2023-05-19T03:23:01;7.90;97.20
16178;DHT22;8195;51.220;9.746;2023-05-19T03:33:21;7.90;97.20
16178;DHT22;8195;51.220;9.746;2023-05-19T03:43:43;7.90;97.20
16178;DHT22;8195;51.220;9.746;2023-05-19T03:54:04;8.00;97.20
16178;DHT22;8195;51.220;9.746;2023-05-19T04:04:25;7.90;97.20
16178;DHT22;8195;51.220;9.746;2023-05-19T04:25:54;8.30;97.20
16178;DHT22;8195;51.220;9.746;2023-05-19T04:36:18;8.60;97.20
16178;DHT22;8195;51.220;9.746;2023-05-19T04:46:39;8.90;97.20
16178;DHT22;8195;51.220;9.746;2023-05-19T04:57:00;9.20;97.20
16178;DHT22;8195;51.220;9.746;2023-05-19T05:07:21;9.30;97.20
16178;DHT22;8195;51.220;9.746;2023-05-19T05:17:43;9.30;97.20
16178;DHT22;8195;51.220;9.746;2023-05-19T05:28:04;9.50;97.20
16178;DHT22;8195;51.220;9.746;2023-05-19T05:38:25;9.70;97.20
16178;DHT22;8195;51.220;9.746;2023-05-19T05:48:46;10.10;97.20
16178;DHT22;8195;51.220;9.746;2023-05-19T05:59:07;10.90;97.20
16178;DHT22;8195;51.220;9.746;2023-05-19T06:09:28;11.20;97.20
16178;DHT22;8195;51.220;9.746;2023-05-19T06:19:48;11.20;97.20
16178;DHT22;8195;51.220;9.746;2023-05-19T06:30:12;12.00;97.20
16178;DHT22;8195;51.220;9.746;2023-05-19T06:40:34;12.50;97.20
16178;DHT22;8195;51.220;9.746;2023-05-19T07:13:40;14.70;97.20
16178;DHT22;8195;51.220;9.746;2023-05-19T07:34:56;15.80;97.20
16178;DHT22;8195;51.220;9.746;2023-05-19T07:45:18;15.80;97.20
16178;DHT22;8195;51.220;9.746;2023-05-19T07:55:41;16.10;97.20
16178;DHT22;8195;51.220;9.746;2023-05-19T08:06:02;16.50;97.20
16178;DHT22;8195;51.220;9.746;2023-05-19T08:16:26;16.70;97.20
16178;DHT22;8195;51.220;9.746;2023-05-19T08:26:47;16.60;97.20
16178;DHT22;8195;51.220;9.746;2023-05-19T08:37:13;17.10;97.20
16178;DHT22;8195;51.220;9.746;2023-05-19T08:48:03;16.90;97.20
16178;DHT22;8195;51.220;9.746;2023-05-19T08:58:45;16.60;97.20
16178;DHT22;8195;51.220;9.746;2023-05-19T09:20:45;17.30;97.20
16178;DHT22;8195;51.220;9.746;2023-05-19T09:31:30;18.20;97.20
16178;DHT22;8195;51.220;9.746;2023-05-19T09:41:54;17.60;97.20
16178;DHT22;8195;51.220;9.746;2023-05-19T09:52:29;17.30;97.20
16178;DHT22;8195;51.220;9.746;2023-05-19T10:02:59;16.70;97.20
16178;DHT22;8195;51.220;9.746;2023-05-19T10:24:23;16.80;97.20
16178;DHT22;8195;51.220;9.746;2023-05-19T10:46:04;17.10;97.20
16178;DHT22;8195;51.220;9.746;2023-05-19T10:57:00;17.50;97.20
16178;DHT22;8195;51.220;9.746;2023-05-19T11:07:30;17.70;97.20
16178;DHT22;8195;51.220;9.746;2023-05-19T11:18:12;17.60;97.20
16178;DHT22;8195;51.220;9.746;2023-05-19T11:28:56;17.90;97.20
16178;DHT22;8195;51.220;9.746;2023-05-19T11:39:19;18.30;97.20
16178;DHT22;8195;51.220;9.746;2023-05-19T11:49:50;18.50;97.20
16178;DHT22;8195;51.220;9.746;2023-05-19T12:00:12;18.40;97.20
16178;DHT22;8195;51.220;9.746;2023-05-19T12:10:33;18.70;97.20
16178;DHT22;8195;51.220;9.746;2023-05-19T12:21:04;18.40;97.20
16178;DHT22;8195;51.220;9.746;2023-05-19T12:31:46;18.10;97.20
16178;DHT22;8195;51.220;9.746;2023-05-19T12:42:07;17.90;97.20
16178;DHT22;8195;51.220;9.746;2023-05-19T12:53:36;17.30;97.20
16178;DHT22;8195;51.220;9.746;2023-05-19T13:04:25;17.30;97.20
16178;DHT22;8195;51.220;9.746;2023-05-19T13:14:30;17.40;97.20
16178;DHT22;8195;51.220;9.746;2023-05-19T13:25:22;17.60;97.20
16178;DHT22;8195;51.220;9.746;2023-05-19T13:35:45;17.60;97.20
16178;DHT22;8195;51.220;9.746;2023-05-19T13:46:12;17.30;97.20
16178;DHT22;8195;51.220;9.746;2023-05-19T13:56:42;17.50;97.20
16178;DHT22;8195;51.220;9.746;2023-05-19T14:07:07;17.50;97.20
16178;DHT22;8195;51.220;9.746;2023-05-19T14:17:40;17.60;97.20
16178;DHT22;8195;51.220;9.746;2023-05-19T14:28:14;17.40;97.20
16178;DHT22;8195;51.220;9.746;2023-05-19T15:02:23;17.40;97.20
16178;DHT22;8195;51.220;9.746;2023-05-19T15:12:18;17.20;97.20
16178;DHT22;8195;51.220;9.746;2023-05-19T15:33:28;16.80;97.20
16178;DHT22;8195;51.220;9.746;2023-05-19T15:43:49;16.80;97.20
16178;DHT22;8195;51.220;9.746;2023-05-19T15:54:19;16.50;97.20
16178;DHT22;8195;51.220;9.746;2023-05-19T16:04:40;16.50;97.20
16178;DHT22;8195;51.220;9.746;2023-05-19T16:15:31;16.30;97.20
16178;DHT22;8195;51.220;9.746;2023-05-19T16:25:52;16.30;97.20
16178;DHT22;8195;51.220;9.746;2023-05-19T16:36:15;16.10;97.20
16178;DHT22;8195;51.220;9.746;2023-05-19T16:46:36;16.00;97.20
16178;DHT22;8195;51.220;9.746;2023-05-19T16:56:57;15.80;97.20
16178;DHT22;8195;51.220;9.746;2023-05-19T17:07:27;15.70;97.20
16178;DHT22;8195;51.220;9.746;2023-05-19T17:39:26;15.20;97.20
16178;DHT22;8195;51.220;9.746;2023-05-19T17:49:47;15.00;97.20
16178;DHT22;8195;51.220;9.746;2023-05-19T18:00:08;14.90;97.20
16178;DHT22;8195;51.220;9.746;2023-05-19T18:10:32;14.70;97.20
16178;DHT22;8195;51.220;9.746;2023-05-19T18:20:55;14.50;97.20
16178;DHT22;8195;51.220;9.746;2023-05-19T18:31:25;14.30;97.20
16178;DHT22;8195;51.220;9.746;2023-05-19T18:41:46;14.20;97.20
16178;DHT22;8195;51.220;9.746;2023-05-19T18:53:09;14.10;97.20
16178;DHT22;8195;51.220;9.746;2023-05-19T19:03:14;14.00;97.20
16178;DHT22;8195;51.220;9.746;2023-05-19T19:13:38;13.80;97.20
16178;DHT22;8195;51.220;9.746;2023-05-19T19:24:02;13.70;97.20
16178;DHT22;8195;51.220;9.746;2023-05-19T19:34:40;13.50;97.20
16178;DHT22;8195;51.220;9.746;2023-05-19T19:45:01;13.50;97.20
16178;DHT22;8195;51.220;9.746;2023-05-19T19:55:31;13.40;97.20
16178;DHT22;8195;51.220;9.746;2023-05-19T20:05:55;13.30;97.20
16178;DHT22;8195;51.220;9.746;2023-05-19T20:16:46;13.20;97.20
16178;DHT22;8195;51.220;9.746;2023-05-19T20:37:50;12.90;97.20
16178;DHT22;8195;51.220;9.746;2023-05-19T20:48:14;12.70;97.20
16178;DHT22;8195;51.220;9.746;2023-05-19T20:58:36;12.60;97.20
16178;DHT22;8195;51.220;9.746;2023-05-19T21:08:57;12.50;97.20
16178;DHT22;8195;51.220;9.746;2023-05-19T21:19:27;12.50;97.20
16178;DHT22;8195;51.220;9.746;2023-05-19T21:30:03;12.30;97.20
16178;DHT22;8195;51.220;9.746;2023-05-19T21:40:24;12.30;97.20
16178;DHT22;8195;51.220;9.746;2023-05-19T21:50:45;12.20;97.20
16178;DHT22;8195;51.220;9.746;2023-05-19T22:12:12;12.10;97.20
16178;DHT22;8195;51.220;9.746;2023-05-19T22:22:33;12.00;97.20
16178;DHT22;8195;51.220;9.746;2023-05-19T22:33:00;12.10;97.20
16178;DHT22;8195;51.220;9.746;2023-05-19T22:43:21;12.20;97.20
16178;DHT22;8195;51.220;9.746;2023-05-19T22:53:42;12.30;97.20
16178;DHT22;8195;51.220;9.746;2023-05-19T23:04:03;12.40;97.20
16178;DHT22;8195;51.220;9.746;2023-05-19T23:14:45;12.40;97.20
16178;DHT22;8195;51.220;9.746;2023-05-19T23:25:48;12.40;97.20
16178;DHT22;8195;51.220;9.746;2023-05-19T23:35:53;12.40;97.20
16178;DHT22;8195;51.220;9.746;2023-05-19T23:46:17;12.40;97.20
16178;DHT22;8195;51.220;9.746;2023-05-19T23:56:38;12.30;97.20
